Date,TemperatureHighF,TemperatureAvgF,TemperatureLowF,DewpointHighF,DewpointAvgF,DewpointLowF,HumidityHigh,HumidityAvg,HumidityLow,PressureMaxIn,PressureMinIn,WindSpeedMaxMPH,WindSpeedAvgMPH,GustSpeedMaxMPH,PrecipitationSumIn
2013-1-1,60,46,37,41,37,34,90,72,42,30.26,30.15,12,1,13,0.00
2013-1-2,63,48,35,43,36,31,85,66,38,30.22,30.10,9,1,9,0.00
2013-1-3,58,46,35,49,38,31,87,76,47,30.24,30.14,9,1,9,0.00
2013-1-4,62,48,37,46,39,34,89,73,48,30.26,30.17,8,1,9,0.00
2013-1-5,56,50,44,50,46,40,95,89,73,30.27,30.08,14,1,17,0.41
2013-1-6,53,48,40,51,45,38,96,90,76,30.19,30.05,11,1,11,0.09
2013-1-7,57,46,37,50,43,36,96,88,69,30.27,30.14,7,0,8,0.09
2013-1-8,63,50,41,51,46,40,96,84,61,30.21,30.10,8,0,8,0.01
2013-1-9,56,49,42,50,44,39,95,86,77,30.13,30.00,16,1,17,0.00
2013-1-10,56,45,37,44,37,32,95,76,46,30.20,30.06,22,2,22,0.03
2013-1-11,57,44,34,41,36,31,92,77,52,30.27,30.13,15,1,16,0.00
2013-1-12,52,44,37,40,35,30,86,72,50,30.25,30.13,10,2,10,0.00
2013-1-13,54,41,31,35,29,22,86,64,29,30.26,30.15,16,2,17,0.00
2013-1-14,53,41,31,34,27,20,75,59,30,30.40,30.20,10,1,10,0.00
2013-1-15,58,43,33,35,30,24,83,63,28,30.48,30.39,7,1,7,0.00
2013-1-16,61,47,35,38,34,30,85,64,34,30.42,30.22,7,1,8,0.00
2013-1-17,72,52,36,42,37,32,87,61,29,30.23,30.10,6,0,7,0.00
2013-1-18,71,54,41,42,38,33,74,57,29,30.19,30.09,7,1,7,0.00
2013-1-19,73,55,43,42,37,33,71,53,28,30.20,30.12,7,1,7,0.00
2013-1-20,74,55,40,42,36,32,73,51,25,30.19,30.07,11,1,11,0.00
2013-1-21,74,55,40,41,35,26,72,50,17,30.15,30.03,9,1,9,0.00
2013-1-22,72,55,40,43,34,27,68,47,20,30.09,29.99,9,1,9,0.00
2013-1-23,62,55,51,50,43,34,91,65,48,30.07,29.96,9,1,9,0.03
2013-1-24,59,54,51,55,52,49,94,92,86,30.17,30.03,6,0,6,0.10
2013-1-25,72,59,52,60,55,50,96,87,65,30.18,30.01,12,1,12,0.00
2013-1-26,66,53,42,55,45,38,96,77,42,30.10,29.99,19,2,19,0.00
2013-1-27,61,48,37,43,39,32,93,74,38,30.17,30.08,13,1,13,0.00
2013-1-28,64,49,38,45,40,34,90,73,41,30.29,30.16,14,2,14,0.00
2013-1-29,58,48,40,49,42,37,92,82,57,30.35,30.25,13,1,13,0.00
2013-1-30,65,51,40,48,43,38,95,77,47,30.36,30.24,7,0,7,0.01
2013-1-31,70,53,40,49,43,36,90,71,43,30.27,30.15,10,1,10,0.00
2013-2-1,69,51,43,52,46,39,94,83,47,30.24,30.11,14,1,15,0.00
2013-2-2,62,50,44,52,47,43,96,90,69,30.28,30.21,8,1,10,0.00
2013-2-3,59,49,43,49,45,41,95,87,65,30.25,30.13,10,1,10,0.01
2013-2-4,60,48,39,52,45,37,96,90,72,30.18,30.05,11,1,11,0.00
2013-2-5,56,49,42,49,45,40,94,87,74,30.16,30.07,10,1,11,0.00
2013-2-6,57,48,37,46,42,35,93,82,65,30.19,30.12,6,-64,6,0.00
2013-2-7,59,47,39,49,41,36,92,80,45,30.19,30.01,13,1,14,0.06
2013-2-8,56,46,38,46,40,35,97,79,50,30.01,29.94,14,1,17,0.03
2013-2-9,57,44,34,46,38,32,91,79,56,30.11,29.99,11,2,11,0.00
2013-2-10,59,45,34,49,39,31,92,79,53,30.12,30.01,11,1,11,0.00
2013-2-11,58,47,36,46,39,34,92,77,54,30.25,30.06,10,1,10,0.00
2013-2-12,59,48,39,46,40,34,92,74,48,30.36,30.24,9,2,9,0.00
2013-2-13,64,49,38,49,42,35,92,79,47,30.34,30.21,9,1,9,0.00
2013-2-14,71,54,40,50,44,37,91,71,42,30.23,30.12,12,1,12,0.00
2013-2-15,77,59,45,47,42,36,80,56,24,30.24,30.17,8,1,8,0.00
2013-2-16,75,58,46,51,44,38,92,63,27,30.20,30.03,10,1,10,0.00
2013-2-17,60,50,43,50,46,41,98,87,66,30.07,29.97,8,1,9,0.00
2013-2-18,54,48,42,48,42,39,95,83,64,30.07,29.99,12,1,12,0.00
2013-2-19,52,45,36,48,41,33,94,85,69,30.00,29.77,19,1,19,0.31
2013-2-20,66,46,32,45,38,30,95,77,35,30.09,29.84,16,2,16,0.01
2013-2-21,66,49,38,44,36,32,92,66,31,30.18,30.06,22,2,22,0.00
2013-2-22,63,48,38,51,41,33,87,78,62,30.26,30.17,11,1,11,0.00
2013-2-23,64,52,42,45,40,33,91,66,33,30.25,30.13,19,3,20,0.00
2013-2-24,63,52,40,44,33,25,81,50,31,30.26,30.14,20,2,20,0.00
2013-2-25,62,49,38,48,40,31,88,71,54,30.28,30.15,10,1,10,0.00
2013-2-26,62,49,37,49,41,34,92,75,49,30.21,30.11,11,1,11,0.00
2013-2-27,69,51,39,50,41,30,88,70,27,30.37,30.19,11,1,12,0.00
2013-2-28,65,53,42,53,46,40,91,81,60,30.45,30.35,8,-3,8,0.00
2013-3-1,78,58,45,55,50,43,95,76,43,30.43,30.19,11,1,13,0.00
2013-3-2,72,57,51,53,49,43,94,76,39,30.23,30.08,11,1,13,0.00
2013-3-3,62,53,50,53,50,46,95,88,72,30.12,30.05,14,1,15,0.00
2013-3-4,58,52,47,48,46,44,90,83,69,30.16,30.06,15,2,15,0.00
2013-3-5,55,50,45,46,44,42,92,79,66,30.10,29.94,26,3,26,0.15
2013-3-6,57,51,43,51,46,40,94,83,67,30.09,29.93,24,3,27,0.29
2013-3-7,58,48,41,47,43,39,94,83,51,30.01,29.85,13,1,13,0.22
2013-3-8,67,52,44,51,44,40,96,75,42,30.10,29.83,19,2,20,0.04
2013-3-9,71,54,45,51,43,37,84,70,30,30.31,30.09,18,2,21,0.00
2013-3-10,64,50,40,50,45,38,93,83,57,30.35,30.25,11,1,11,0.00
2013-3-11,71,52,40,51,44,35,94,79,28,30.27,30.11,13,1,16,0.00
2013-3-12,70,54,44,54,48,43,96,83,52,30.15,30.04,13,1,13,0.00
2013-3-13,78,56,46,56,50,45,97,83,41,30.15,30.06,12,1,13,0.00
2013-3-14,62,53,46,54,50,45,97,89,74,30.17,30.09,9,1,10,0.01
2013-3-15,70,55,44,53,47,40,92,77,42,30.12,30.03,9,1,10,0.00
2013-3-16,66,54,47,53,50,45,99,86,59,30.11,30.03,13,1,13,0.01
2013-3-17,68,53,42,52,46,40,95,79,47,30.14,30.03,11,1,11,0.00
2013-3-18,63,51,42,50,46,40,92,82,54,30.14,30.04,14,1,14,0.00
2013-3-19,67,55,46,53,47,41,92,76,44,30.14,30.05,13,2,13,0.11
2013-3-20,65,56,53,54,51,38,95,83,40,30.13,30.07,12,1,12,0.01
2013-3-21,71,56,46,52,45,36,92,67,31,30.12,29.98,18,2,18,0.00
2013-3-22,75,55,40,50,37,18,94,62,12,30.08,29.99,19,2,19,0.00
2013-3-23,67,53,40,50,42,33,84,67,30,30.12,30.02,12,1,13,0.00
2013-3-24,67,52,41,51,44,36,88,75,40,30.10,29.96,13,1,13,0.00
2013-3-25,63,52,45,50,46,42,95,82,60,30.04,29.94,11,1,11,0.00
2013-3-26,68,53,45,52,47,42,92,80,56,30.02,29.92,14,2,15,0.00
2013-3-27,65,55,47,55,50,44,94,85,68,30.04,29.96,15,2,15,0.00
2013-3-28,66,58,52,58,54,50,97,88,70,30.09,30.02,13,2,14,0.10
2013-3-29,67,55,48,57,51,46,96,88,67,30.10,30.04,14,1,14,0.01
2013-3-30,67,57,52,55,52,50,95,86,60,30.11,30.01,13,1,14,0.38
2013-3-31,65,57,53,57,54,52,96,88,69,30.09,30.01,20,3,21,0.02
2013-4-1,64,58,52,57,53,49,96,86,68,30.17,30.05,14,2,14,0.36
2013-4-2,72,57,47,56,51,46,96,82,49,30.19,30.07,12,2,13,0.01
2013-4-3,71,55,50,57,51,49,96,87,60,30.14,30.00,13,2,13,0.00
2013-4-4,62,55,50,58,53,49,97,93,83,30.13,30.04,10,1,10,0.24
2013-4-5,69,59,54,57,54,49,96,83,64,30.19,30.11,18,2,18,0.00
2013-4-6,60,54,50,55,51,48,93,89,76,30.21,30.13,8,1,8,0.00
2013-4-7,68,57,50,56,52,48,93,83,57,30.19,29.90,17,3,18,0.10
2013-4-8,72,57,48,52,41,30,93,58,24,30.01,29.82,32,5,32,0.11
2013-4-9,78,61,44,49,38,31,82,49,19,30.06,29.97,29,4,30,0.00
2013-4-10,75,60,47,55,49,41,88,70,32,30.16,30.03,10,1,10,0.00
2013-4-11,69,57,49,53,50,47,94,78,54,30.09,29.86,12,1,14,0.00
2013-4-12,68,54,46,52,48,43,94,81,50,29.94,29.84,12,1,14,0.00
2013-4-13,71,56,49,52,46,38,94,74,34,29.93,29.83,26,2,26,0.01
2013-4-14,74,55,43,50,44,40,91,70,30,29.95,29.85,22,3,22,0.00
2013-4-15,65,54,46,49,41,35,92,64,36,29.97,29.88,24,4,24,0.00
2013-4-16,46,46,45,38,38,38,75,75,74,29.98,29.96,6,0,13,0.00
2013-4-17,73,60,44,40,32,26,68,38,18,30.25,30.14,24,4,26,0.00
2013-4-18,71,55,43,50,42,35,85,65,32,30.27,30.17,17,2,17,0.00
2013-4-19,70,55,46,52,46,40,89,73,34,30.25,30.09,11,1,12,0.00
2013-4-20,75,57,47,55,49,44,93,77,42,30.11,29.96,15,1,15,0.00
2013-4-21,72,58,47,54,49,44,90,75,46,30.02,29.92,11,1,11,0.00
2013-4-22,65,55,48,53,49,44,94,82,53,29.99,29.90,13,1,13,0.00
2013-4-23,60,53,49,52,50,47,96,89,75,29.99,29.88,16,2,16,0.00
2013-4-24,65,55,50,53,50,48,93,84,64,29.98,29.85,12,1,12,0.00
2013-4-25,68,57,48,53,50,45,93,79,54,30.13,29.98,18,2,18,0.00
2013-4-26,71,56,46,54,49,44,93,81,54,30.23,30.13,10,1,11,0.00
2013-4-27,69,56,49,54,50,48,95,83,54,30.23,30.09,10,1,11,0.00
2013-4-28,68,55,49,55,51,47,96,86,62,30.10,29.90,11,1,11,0.00
2013-4-29,74,59,50,57,52,48,94,80,52,29.91,29.78,13,1,13,0.00
2013-4-30,68,57,49,55,51,46,93,81,58,29.86,29.79,12,1,12,0.00
2013-5-1,64,55,48,54,50,45,93,85,70,30.10,29.85,14,2,14,0.00
2013-5-2,78,62,50,57,52,45,89,71,33,30.14,30.08,12,1,12,0.00
2013-5-3,80,64,54,56,49,40,91,63,27,30.09,29.82,13,1,13,0.00
2013-5-4,60,54,49,55,51,46,93,87,79,29.82,29.68,16,2,16,0.00
2013-5-5,67,58,53,54,51,48,89,79,56,29.81,29.66,17,4,26,0.00
2013-5-6,65,60,55,56,53,50,86,79,69,29.97,29.81,14,1,16,0.00
2013-5-7,68,60,53,56,53,51,94,78,63,30.07,29.96,16,2,16,0.00
2013-5-8,71,58,52,56,52,50,95,82,54,30.15,30.05,17,2,17,0.00
2013-5-9,69,58,52,54,51,49,89,79,58,30.18,30.08,13,2,13,0.00
2013-5-10,71,59,51,57,52,48,91,81,57,30.19,30.10,12,1,12,0.00
2013-5-11,77,59,52,58,54,50,95,83,52,30.16,30.06,13,1,13,0.00
2013-5-12,72,59,51,59,54,49,95,83,60,30.14,30.02,14,1,14,0.00
2013-5-13,74,61,53,58,54,50,95,81,54,30.10,29.96,12,1,12,0.00
2013-5-14,69,59,54,55,52,47,91,80,59,30.06,29.97,13,2,13,0.00
2013-5-15,77,60,47,54,48,44,92,69,34,30.09,30.02,16,2,18,0.00
2013-5-16,72,58,51,58,52,47,90,82,62,30.06,29.97,14,1,16,0.00
2013-5-17,80,60,48,54,48,43,90,67,33,30.10,29.99,21,2,21,0.00
2013-5-18,72,59,46,54,49,42,87,70,47,30.15,30.08,10,1,11,0.00
2013-5-19,76,60,48,58,52,46,91,76,50,30.13,29.96,14,1,14,0.00
2013-5-20,77,61,49,58,52,45,89,74,43,30.00,29.91,15,1,15,0.00
2013-5-21,81,60,52,56,48,34,93,69,20,30.02,29.93,25,3,28,0.00
2013-5-22,76,57,44,43,38,23,83,53,18,30.01,29.90,21,4,24,0.00
2013-5-23,71,56,44,49,44,39,84,66,38,30.03,29.96,17,2,17,0.00
2013-5-24,74,56,44,51,45,40,87,69,41,30.04,29.95,11,1,11,0.00
2013-5-25,72,57,44,51,46,40,87,69,40,30.09,30.01,17,1,17,0.00
2013-5-26,72,59,49,57,51,45,87,77,58,30.15,30.06,11,1,13,0.00
2013-5-27,67,58,50,57,53,47,91,83,67,30.15,30.02,10,1,10,0.00
2013-5-28,80,62,55,61,55,51,95,80,46,30.03,29.89,12,1,12,0.00
2013-5-29,81,63,53,59,52,47,91,70,35,29.98,29.88,19,2,19,0.00
2013-5-30,72,59,48,54,49,44,87,73,47,30.01,29.94,12,1,12,0.00
2013-5-31,72,59,48,56,50,44,89,74,45,30.01,29.90,11,1,12,0.00
2013-6-1,73,60,50,57,52,47,91,76,50,29.95,29.73,11,1,11,0.00
2013-6-2,65,57,51,55,52,48,92,83,68,29.74,29.67,15,2,15,0.00
2013-6-3,65,58,53,54,52,50,93,81,63,29.82,29.70,16,2,16,0.00
2013-6-4,66,58,50,56,52,47,91,81,68,29.92,29.80,14,2,14,0.00
2013-6-5,62,56,51,55,52,49,93,85,74,29.95,29.89,17,2,17,0.00
2013-6-6,61,56,53,54,52,51,92,86,76,29.91,29.83,18,3,18,0.00
2013-6-7,62,56,52,56,53,51,95,90,78,29.86,29.71,14,2,14,0.00
2013-6-8,62,57,51,57,54,50,96,90,81,29.80,29.71,12,1,12,0.00
2013-6-9,64,60,56,58,56,54,96,88,79,29.85,29.78,11,1,11,0.03
2013-6-10,70,62,58,55,54,52,86,75,59,29.91,29.81,14,1,17,0.00
2013-6-11,73,61,56,58,55,52,92,80,55,29.92,29.83,13,2,13,0.00
2013-6-12,73,60,51,56,52,41,94,77,37,29.96,29.85,15,1,15,0.00
2013-6-13,74,60,47,56,50,43,88,73,44,30.03,29.92,11,1,11,0.00
2013-6-14,79,62,50,58,52,47,92,74,40,29.93,29.74,16,2,16,0.00
2013-6-15,65,57,52,55,52,50,94,85,68,29.96,29.79,15,2,16,0.00
2013-6-16,71,60,54,57,53,50,90,79,57,30.03,29.95,10,1,10,0.00
2013-6-17,86,65,51,61,54,49,92,71,35,30.04,29.93,18,2,18,0.00
2013-6-18,79,64,52,55,51,43,91,66,32,29.98,29.90,23,3,23,0.00
2013-6-19,81,64,49,55,48,44,84,61,31,29.99,29.90,19,3,20,0.00
2013-6-20,78,62,49,57,49,44,84,64,32,29.95,29.86,23,1,24,0.00
2013-6-21,74,61,50,56,51,45,86,71,42,29.92,29.84,11,1,12,0.00
2013-6-22,76,60,50,58,53,48,91,78,44,29.88,29.79,13,1,13,0.00
2013-6-23,63,59,56,60,56,53,95,90,81,29.85,29.77,8,1,8,0.01
2013-6-24,60,59,58,59,58,56,97,96,95,29.88,29.74,6,0,6,0.00
2013-6-25,67,61,58,64,60,57,97,95,86,29.96,29.87,8,0,8,0.16
2013-6-26,84,67,60,67,62,58,97,83,54,29.98,29.88,13,2,14,0.00
2013-6-27,78,66,58,63,59,55,94,80,58,29.99,29.93,10,1,11,0.00
2013-6-28,82,64,57,61,58,55,93,80,48,29.95,29.84,14,2,14,0.00
2013-6-29,75,64,55,61,57,53,94,81,60,29.87,29.75,12,2,12,0.00
2013-6-30,74,63,55,61,57,52,94,82,61,29.80,29.70,11,1,11,0.00
2013-7-1,75,63,57,61,57,54,95,84,60,29.83,29.74,13,2,13,0.00
2013-7-2,75,62,56,62,58,54,96,85,62,29.89,29.79,11,2,12,0.00
2013-7-3,68,61,57,61,58,56,96,89,75,29.88,29.73,13,2,13,0.00
2013-7-4,65,61,58,60,58,56,96,90,79,29.75,29.68,15,2,15,0.00
2013-7-5,73,62,56,58,56,53,94,81,59,29.77,29.69,11,2,16,0.00
2013-7-6,63,58,56,56,54,53,93,86,75,29.78,29.73,14,2,17,0.00
2013-7-7,64,58,55,56,54,52,91,85,75,29.82,29.75,14,2,14,0.00
2013-7-8,64,58,55,56,54,52,92,86,73,29.92,29.82,13,2,15,0.00
2013-7-9,73,60,53,61,56,52,95,86,61,29.96,29.88,14,2,14,0.00
2013-7-10,64,58,55,58,55,54,95,90,80,29.94,29.86,16,3,16,0.00
2013-7-11,68,59,55,57,54,53,94,85,66,29.91,29.85,14,2,14,0.00
2013-7-12,71,59,54,57,54,52,93,84,61,29.90,29.83,14,2,14,0.00
2013-7-13,70,58,54,58,54,52,95,88,67,29.93,29.86,13,2,13,0.00
2013-7-14,71,59,53,58,55,52,96,87,62,29.96,29.85,14,2,14,0.00
2013-7-15,62,58,54,57,54,52,95,88,75,29.88,29.80,18,2,18,0.00
2013-7-16,69,60,56,59,55,53,94,84,69,29.96,29.82,19,2,20,0.00
2013-7-17,75,62,55,60,56,51,92,80,58,30.02,29.95,12,2,12,0.00
2013-7-18,70,59,55,59,55,53,96,87,65,30.00,29.89,14,2,14,0.00
2013-7-19,69,59,54,58,55,53,96,87,66,29.91,29.79,12,2,12,0.00
2013-7-20,62,57,54,56,54,52,95,90,78,29.82,29.75,11,2,13,0.00
2013-7-21,66,58,54,58,55,52,95,88,74,29.85,29.73,14,2,14,0.00
2013-7-22,71,62,57,62,58,55,94,86,72,29.91,29.83,11,1,11,0.00
2013-7-23,69,61,57,60,57,55,95,88,71,29.96,29.89,13,2,14,0.01
2013-7-24,67,59,56,60,56,55,97,90,76,29.94,29.85,14,2,16,0.00
2013-7-25,64,59,55,58,56,54,96,90,79,29.98,29.88,16,2,16,0.00
2013-7-26,64,59,56,58,56,54,96,90,81,30.05,29.97,15,2,15,0.00
2013-7-27,63,58,55,57,55,54,96,90,80,29.98,29.84,14,2,14,0.01
2013-7-28,64,58,55,57,55,54,96,89,78,29.85,29.80,12,2,12,0.00
2013-7-29,67,60,57,58,55,53,88,82,71,29.97,29.82,12,2,14,0.00
2013-7-30,65,60,58,56,54,53,87,81,73,30.05,29.97,17,2,18,0.00
2013-7-31,71,60,56,58,55,53,89,83,62,30.05,29.96,15,2,15,0.00
2013-8-1,76,61,50,59,54,48,94,79,53,30.03,29.89,10,1,10,0.00
2013-8-2,71,59,51,58,54,49,92,84,61,29.94,29.85,12,2,13,0.00
2013-8-3,63,57,55,56,54,53,93,88,75,29.95,29.89,14,2,14,0.00
2013-8-4,65,58,54,57,54,53,95,88,73,29.96,29.90,14,2,14,0.00
2013-8-5,71,59,55,59,55,53,95,86,63,29.97,29.88,14,2,15,0.00
2013-8-6,64,58,56,57,55,53,94,88,78,30.00,29.91,20,2,20,0.00
2013-8-7,67,61,58,58,56,55,94,84,71,30.05,29.96,18,2,21,0.00
2013-8-8,66,61,57,59,56,54,94,86,74,29.98,29.87,17,3,18,0.00
2013-8-9,69,61,56,60,56,53,91,84,72,29.94,29.86,18,2,18,0.00
2013-8-10,75,62,58,61,58,56,94,85,63,29.98,29.92,16,2,16,0.00
2013-8-11,70,61,57,60,57,55,96,88,69,29.97,29.88,16,2,16,0.00
2013-8-12,70,60,56,60,56,54,95,89,70,29.94,29.88,15,2,15,0.00
2013-8-13,71,60,55,60,56,53,96,88,63,29.93,29.85,16,2,16,0.00
2013-8-14,74,62,53,61,56,51,96,84,60,29.93,29.83,11,1,11,0.00
2013-8-15,80,65,55,66,60,53,94,84,60,29.89,29.82,13,1,14,0.00
2013-8-16,77,64,57,66,60,56,98,87,65,29.92,29.84,14,2,14,0.01
2013-8-17,71,62,57,61,58,56,96,87,68,29.95,29.82,15,1,15,0.01
2013-8-18,66,61,58,60,58,56,96,91,80,29.85,29.73,14,1,14,0.00
2013-8-19,66,59,56,59,57,55,96,91,77,29.87,29.77,13,2,13,0.00
2013-8-20,65,60,56,58,56,55,96,89,79,29.87,29.80,14,2,14,0.00
2013-8-21,67,61,57,58,56,54,91,84,73,29.89,29.81,17,2,17,0.00
2013-8-22,74,63,56,59,56,54,92,80,59,29.91,29.81,16,2,16,0.00
2013-8-23,74,62,56,60,56,53,92,83,61,29.87,29.75,12,1,12,0.00
2013-8-24,75,63,56,62,58,54,95,85,62,29.85,29.75,11,1,12,0.00
2013-8-25,75,65,59,63,60,56,93,85,66,29.89,29.82,19,2,19,0.00
2013-8-26,78,65,60,62,59,55,94,82,54,29.94,29.80,14,1,14,0.00
2013-8-27,75,63,54,61,57,51,92,81,57,29.84,29.73,11,1,12,0.00
2013-8-28,79,64,54,64,59,52,95,85,59,29.88,29.78,17,2,17,0.00
2013-8-29,76,64,60,64,60,57,96,87,67,29.98,29.88,11,1,11,0.00
2013-8-30,82,66,57,64,60,54,94,82,54,29.96,29.82,14,1,14,0.01
2013-8-31,75,63,58,62,59,56,96,85,57,29.91,29.81,14,1,14,0.00
2013-9-1,81,66,59,64,60,55,95,81,46,29.87,29.78,15,1,15,0.00
2013-9-2,82,68,64,66,62,60,90,80,55,29.89,29.78,11,1,11,0.00
2013-9-3,84,68,58,62,59,55,95,75,42,29.93,29.82,12,1,12,0.00
2013-9-4,83,67,56,62,58,53,90,72,43,29.97,29.83,11,1,11,0.00
2013-9-5,86,67,55,61,56,52,89,71,37,29.96,29.84,19,1,19,0.00
2013-9-6,84,65,54,62,56,50,86,72,44,29.93,29.72,13,1,14,0.00
2013-9-7,70,63,57,60,57,51,94,82,69,29.82,29.76,10,1,10,0.00
2013-9-8,65,60,56,60,57,55,96,92,83,29.82,29.72,14,1,14,0.00
2013-9-9,66,60,56,61,57,55,97,92,79,29.75,29.67,15,1,15,0.00
2013-9-10,65,60,57,60,58,56,97,92,81,29.85,29.71,11,1,11,0.02
2013-9-11,67,62,58,60,58,55,92,86,76,29.95,29.85,13,1,15,0.00
2013-9-12,76,63,57,63,59,54,92,85,63,29.91,29.81,15,1,15,0.00
2013-9-13,72,62,58,61,58,56,96,87,67,29.85,29.69,11,1,11,0.00
2013-9-14,73,62,55,61,57,53,95,86,66,29.76,29.65,9,1,9,0.00
2013-9-15,76,62,52,62,56,50,96,83,61,29.80,29.71,9,1,9,0.01
2013-9-16,76,64,55,62,58,52,93,82,62,29.83,29.70,10,1,10,0.00
2013-9-17,80,63,53,60,54,50,92,75,37,29.84,29.77,25,2,25,0.00
2013-9-18,74,60,51,58,54,49,92,79,58,29.84,29.72,10,1,10,0.00
2013-9-19,88,63,49,60,52,44,90,70,26,29.79,29.65,17,1,17,0.00
2013-9-20,68,60,50,62,55,47,95,87,76,29.81,29.71,16,1,16,0.00
2013-9-21,64,60,54,61,58,52,98,95,88,29.85,29.76,18,2,19,0.14
2013-9-22,70,58,50,60,54,48,96,85,53,29.93,29.84,10,1,14,0.01
2013-9-23,80,64,52,62,56,50,92,76,50,29.94,29.82,9,1,9,0.00
2013-9-24,84,65,56,60,55,50,93,73,37,29.93,29.82,21,2,22,0.00
2013-9-25,75,62,50,54,48,42,88,63,34,29.88,29.76,22,3,22,0.00
2013-9-26,76,58,45,54,47,42,91,70,32,29.91,29.76,9,1,9,0.00
2013-9-27,76,59,47,55,47,41,80,65,31,30.02,29.91,17,1,17,0.00
2013-9-28,81,62,48,54,45,35,81,57,21,30.01,29.90,13,1,13,0.00
2013-9-29,79,62,51,62,54,46,91,77,54,30.04,29.94,10,1,12,0.00
2013-9-30,77,64,54,64,58,52,93,83,63,30.01,29.86,15,1,15,0.01
2013-10-1,71,61,51,58,53,48,99,77,52,29.95,29.85,9,1,9,0.00
2013-10-2,69,57,48,58,51,45,95,83,60,29.95,29.85,10,0,10,0.00
2013-10-3,79,59,44,54,43,32,92,62,21,29.98,29.85,18,2,18,0.00
2013-10-4,85,64,46,50,40,32,78,48,17,30.01,29.87,15,1,15,0.00
2013-10-5,86,68,54,46,36,23,48,33,11,30.09,29.99,9,1,9,0.00
2013-10-6,82,66,52,41,36,32,52,35,17,30.03,29.92,11,1,11,0.00
2013-10-7,72,59,49,56,44,33,91,60,27,29.92,29.81,15,1,15,0.00
2013-10-8,61,54,48,54,50,45,93,87,77,29.85,29.67,14,2,14,0.00
2013-10-9,63,55,49,51,49,46,92,81,59,29.71,29.57,14,1,14,0.00
2013-10-10,58,53,47,52,48,44,90,86,73,29.96,29.70,8,1,8,0.00
2013-10-11,63,54,50,53,50,47,92,85,67,30.02,29.90,15,2,15,0.00
2013-10-12,61,52,47,54,50,46,96,90,76,29.96,29.85,15,1,15,0.00
2013-10-13,61,52,46,54,49,43,94,90,74,29.99,29.87,10,1,10,0.00
2013-10-14,76,58,45,54,46,41,93,67,33,30.02,29.89,10,1,10,0.00
2013-10-15,83,64,49,53,41,36,75,47,20,29.94,29.83,11,1,11,0.00
2013-10-16,80,64,52,46,40,35,59,42,25,29.99,29.90,9,0,9,0.00
2013-10-17,70,58,50,55,44,34,87,61,34,30.00,29.87,10,0,10,0.00
2013-10-18,75,57,45,55,44,36,95,66,25,29.97,29.89,11,1,12,0.00
2013-10-19,69,54,43,54,49,42,97,84,43,29.99,29.92,13,1,14,0.00
2013-10-20,65,53,46,54,50,45,97,89,60,29.97,29.84,10,1,10,0.00
2013-10-21,66,53,46,54,50,46,97,90,58,29.94,29.85,11,1,11,0.00
2013-10-22,60,52,48,54,50,46,97,92,80,29.95,29.88,13,1,13,0.00
2013-10-23,54,51,48,53,50,46,97,94,90,29.91,29.86,8,0,8,0.00
2013-10-24,58,52,49,53,50,46,97,91,79,30.04,29.91,8,0,8,0.00
2013-10-25,66,53,44,54,50,42,96,87,67,30.09,30.00,9,0,9,0.01
2013-10-26,67,53,44,56,50,42,95,89,66,30.06,29.95,13,1,13,0.01
2013-10-27,65,54,47,56,50,46,97,89,67,29.97,29.68,24,2,24,0.00
2013-10-28,67,57,53,53,49,45,92,76,47,29.80,29.63,18,2,18,0.00
2013-10-29,61,55,48,55,51,45,96,88,67,29.98,29.80,14,1,14,0.56
2013-10-30,68,54,44,53,48,42,94,79,49,30.08,29.98,10,1,10,0.00
2013-10-31,73,57,46,56,48,42,89,74,43,30.09,29.97,9,0,9,0.00
2013-11-1,76,59,47,53,47,42,92,68,35,30.04,29.93,10,0,10,0.00
2013-11-2,65,54,43,53,46,37,95,74,53,29.95,29.84,8,0,8,0.00
2013-11-3,72,55,43,52,38,28,95,61,21,29.95,29.82,15,2,16,0.00
2013-11-4,71,55,41,42,35,29,82,51,22,29.97,29.83,20,2,24,0.00
2013-11-5,67,53,42,52,42,36,88,68,35,30.14,29.97,7,0,7,0.00
2013-11-6,77,59,44,48,39,33,76,50,22,30.16,30.06,7,0,8,0.00
2013-11-7,68,56,48,53,44,36,88,65,38,30.09,29.98,9,0,9,0.00
2013-11-8,68,54,44,54,47,39,91,78,51,30.01,29.86,8,0,8,0.00
2013-11-9,68,56,46,54,49,43,92,80,43,29.99,29.89,11,1,11,0.00
2013-11-10,63,55,49,53,50,46,91,84,71,30.06,29.96,10,1,10,0.00
2013-11-11,67,56,47,53,50,45,93,82,51,30.09,29.99,10,0,10,0.00
2013-11-12,75,59,50,56,52,46,91,78,42,30.18,30.06,8,0,9,0.00
2013-11-13,70,56,46,56,50,42,94,81,54,30.17,30.02,7,0,7,0.00
2013-11-14,56,52,47,54,50,46,97,95,91,30.05,29.83,8,0,8,0.00
2013-11-15,63,51,43,52,46,40,96,85,62,29.84,29.66,10,0,10,0.02
2013-11-16,63,51,41,51,45,39,92,80,56,29.88,29.72,8,0,8,0.00
2013-11-17,63,52,46,52,47,44,92,83,63,30.03,29.87,10,-3,10,0.00
2013-11-18,59,52,48,51,48,45,94,85,72,30.09,30.01,13,1,13,0.00
2013-11-19,61,55,48,54,50,45,95,86,72,30.05,29.90,6,0,6,0.37
2013-11-20,58,56,49,57,55,48,100,97,95,29.90,29.78,7,0,7,0.32
2013-11-21,66,55,48,52,42,29,97,68,35,29.87,29.80,19,1,19,0.01
2013-11-22,63,51,43,41,36,28,82,59,28,29.94,29.84,9,0,9,0.00
2013-11-23,64,52,43,52,43,34,88,72,46,30.04,29.89,10,0,10,0.00
2013-11-24,65,51,41,50,43,36,87,74,48,30.17,30.03,8,0,8,0.00
2013-11-25,70,54,42,50,43,38,88,68,37,30.23,30.14,7,0,7,0.00
2013-11-26,74,55,44,53,44,40,86,69,33,30.17,29.94,6,0,6,0.00
2013-11-27,67,56,47,49,45,41,83,69,43,29.94,29.76,10,0,10,0.00
2013-11-28,68,56,48,48,44,42,83,67,42,30.01,29.77,9,0,9,0.00
2013-11-29,71,54,44,53,46,39,94,76,39,30.15,30.00,11,0,11,0.00
2013-11-30,66,51,40,54,47,37,95,85,60,30.19,30.09,7,0,8,0.01
2013-12-1,71,54,42,54,46,41,95,77,42,30.24,30.11,8,0,8,0.00
2013-12-2,64,53,42,53,47,39,92,80,56,30.15,29.91,9,0,9,0.00
2013-12-3,59,50,38,50,41,33,94,73,42,29.91,29.77,18,1,18,0.00
2013-12-4,54,43,33,34,30,26,85,63,39,30.00,29.86,11,1,11,0.00
2013-12-5,52,40,30,35,28,20,78,63,32,30.10,29.99,9,0,9,0.00
2013-12-6,53,44,32,50,36,26,89,73,53,30.13,29.88,22,2,24,0.10
2013-12-7,54,46,33,50,35,27,91,70,36,30.17,29.83,23,2,24,0.14
2013-12-8,53,39,31,36,28,23,92,67,38,30.23,30.10,11,1,11,0.00
2013-12-9,58,41,29,32,25,20,76,54,25,30.31,30.22,10,1,13,0.00
2013-12-10,63,46,31,36,28,22,75,52,21,30.30,30.09,10,0,10,0.00
2013-12-11,64,48,35,38,31,25,76,54,25,30.12,30.05,8,0,8,0.00
2013-12-12,61,47,37,42,33,27,72,60,29,30.17,30.08,8,0,8,0.00
2013-12-13,61,46,36,45,36,29,82,70,48,30.24,30.15,6,0,6,0.00
2013-12-14,68,51,36,45,38,32,87,63,38,30.28,30.18,7,0,7,0.00
2013-12-15,70,54,39,49,37,32,76,55,31,30.25,30.10,10,1,10,0.00
2013-12-16,78,60,47,41,34,31,61,40,18,30.11,29.99,9,1,9,0.00
2013-12-17,75,58,47,49,39,32,79,51,26,30.06,29.92,6,0,6,0.00
2013-12-18,56,51,44,50,46,42,92,83,74,29.94,29.73,8,0,8,0.00
2013-12-19,63,52,41,46,38,32,92,63,35,29.84,29.65,16,2,16,0.00
2013-12-20,59,47,36,45,32,24,72,56,40,29.93,29.83,9,0,9,0.00
2013-12-21,61,48,37,47,36,26,85,64,42,30.01,29.88,6,0,7,0.00
2013-12-22,62,50,40,53,44,38,93,83,49,30.22,30.01,9,0,9,0.00
2013-12-23,66,51,41,50,42,38,91,74,42,30.30,30.21,7,0,7,0.00
2013-12-24,72,55,40,46,40,33,87,60,31,30.23,30.09,8,0,8,0.00
2013-12-25,76,57,42,42,37,32,72,51,26,30.17,30.07,8,0,8,0.00
2013-12-26,81,59,45,45,37,32,68,48,18,30.14,30.03,7,0,7,0.00
2013-12-27,70,55,41,44,36,31,71,50,26,30.11,30.01,8,0,8,0.00
2013-12-28,62,50,38,49,37,30,77,62,47,30.04,29.92,7,0,7,0.00
2013-12-29,72,53,37,37,32,25,74,49,19,30.09,29.99,8,0,8,0.00
2013-12-30,68,52,40,44,33,29,66,49,26,30.17,30.08,7,0,7,0.00
2013-12-31,66,49,36,49,36,26,81,61,32,30.18,30.04,7,0,7,0.00
2014-1-1,68,51,38,51,40,32,85,67,30,30.11,30.01,7,0,7,0.00
2014-1-2,69,53,42,50,40,33,80,63,32,30.06,29.95,7,0,7,0.00